KZZV/ZZV METAR and TAF weather

Enter ICAO airport designator
Station Type Date Time Source
KZZV METAR 2020/01/24 21:17 UTC NOAA

KZZV 242117Z AUTO 12009KT 10SM -RA SCT011 OVC060 09/08 A2982 RMK AO2 P0001 T00940083


Station Type Date Time Source
KZZV Decoded METAR 2020/01/24 21:17 UTC NOAA

ZANESVILLE MUNICIPAL AIRPORT , OH, United States (KZZV) 39-57N 81-54W 268M
Jan 24, 2020 - 04:17 PM EST / 2020.01.24 2117 UTC
Wind: from the ESE (120 degrees) at 10 MPH (9 KT):0
Visibility: 10 mile(s):0
Sky conditions: overcast
Weather: light rain
Precipitation last hour: 0.01 inches
Temperature: 48.9 F (9.4 C)
Dew Point: 46.9 F (8.3 C)
Relative Humidity: 92%
Pressure (altimeter): 29.82 in. Hg (1009 hPa)
ob: KZZV 242117Z AUTO 12009KT 10SM -RA SCT011 OVC060 09/08 A2982 RMK AO2 P0001 T00940083
cycle: 21

Station Type Date Time Source
KZZV TAF 2020/01/24 21:59 UTC NOAA

TAF
AMD KZZV 242059Z 2421/2518 14007KT 5SM -RA OVC010 WS020/15040KT
FM250100 15006KT P6SM -RA OVC035
FM250600 VRB03KT P6SM -RA OVC006
FM251200 22008G18KT P6SM OVC015

Example: see airport list